createdAt,value
2023-03-22T00:00:35.820Z,50.834908
2023-03-22T00:01:35.853Z,50.834919
2023-03-22T00:02:35.866Z,50.834904
2023-03-22T00:03:35.856Z,50.834854
2023-03-22T00:04:35.816Z,50.834850
2023-03-22T00:05:35.839Z,50.834854
2023-03-22T00:06:35.799Z,50.834866
2023-03-22T00:07:35.796Z,50.834858
2023-03-22T00:08:35.831Z,50.834835
2023-03-22T00:09:35.772Z,50.834846
2023-03-22T00:10:35.754Z,50.834843
2023-03-22T00:12:09.009Z,50.834785
2023-03-22T00:12:35.730Z,50.834805
2023-03-22T00:13:35.825Z,50.834766
2023-03-22T00:14:35.740Z,50.834805
2023-03-22T00:15:35.728Z,50.834785
2023-03-22T00:16:35.730Z,50.834820
2023-03-22T00:17:35.942Z,50.834850
2023-03-22T00:18:35.694Z,50.834824
2023-03-22T00:19:35.721Z,50.834846
2023-03-22T00:20:35.728Z,50.834808
2023-03-22T00:21:35.676Z,50.834854
2023-03-22T00:22:35.642Z,50.834843
2023-03-22T00:23:35.651Z,50.834839
2023-03-22T00:24:35.652Z,50.834789
2023-03-22T00:25:35.662Z,50.834824
2023-03-22T00:26:35.636Z,50.834812
2023-03-22T00:27:35.631Z,50.834824
2023-03-22T00:28:35.609Z,50.834805
2023-03-22T00:29:35.648Z,50.834820
2023-03-22T00:30:35.634Z,50.834831
2023-03-22T00:31:35.702Z,50.834805
2023-03-22T00:32:35.607Z,50.834820
2023-03-22T00:33:35.616Z,50.834831
2023-03-22T00:34:35.573Z,50.834827
2023-03-22T00:35:35.613Z,50.834808
2023-03-22T00:36:35.543Z,50.834808
2023-03-22T00:37:35.564Z,50.834820
2023-03-22T00:38:42.016Z,50.834808
2023-03-22T00:39:37.530Z,50.834801
2023-03-22T00:40:35.538Z,50.834812
2023-03-22T00:41:35.525Z,50.834846
2023-03-22T00:42:35.529Z,50.834812
2023-03-22T00:43:35.556Z,50.834824
2023-03-22T00:44:35.644Z,50.834808
2023-03-22T00:45:35.491Z,50.834812
2023-03-22T00:46:35.559Z,50.834808
2023-03-22T00:47:35.507Z,50.834827
2023-03-22T00:48:35.451Z,50.834801
2023-03-22T00:49:35.460Z,50.834812
2023-03-22T00:50:35.487Z,50.834820
2023-03-22T00:51:35.451Z,50.834805
2023-03-22T00:52:35.451Z,50.834824
2023-03-22T00:53:35.530Z,50.834824
2023-03-22T00:54:35.466Z,50.834839
2023-03-22T00:55:35.422Z,50.834831
2023-03-22T00:56:35.424Z,50.834808
2023-03-22T00:57:35.406Z,50.834827
2023-03-22T00:58:35.418Z,50.834827
2023-03-22T00:59:35.410Z,50.834824
2023-03-22T01:00:35.402Z,50.834820
2023-03-22T01:01:35.472Z,50.834801
2023-03-22T01:02:35.381Z,50.834805
2023-03-22T01:03:35.396Z,50.834858
2023-03-22T01:04:35.371Z,50.834827
2023-03-22T01:05:35.352Z,50.834816
2023-03-22T01:06:35.324Z,50.834801
2023-03-22T01:07:35.319Z,50.834831
2023-03-22T01:08:35.324Z,50.834789
2023-03-22T01:09:35.321Z,50.834774
2023-03-22T01:10:35.297Z,50.834801
2023-03-22T01:11:35.276Z,50.834789
2023-03-22T01:12:35.275Z,50.834820
2023-03-22T01:13:35.321Z,50.834835
2023-03-22T01:14:35.257Z,50.834816
2023-03-22T01:15:35.258Z,50.834835
2023-03-22T01:16:35.256Z,50.834854
2023-03-22T01:17:35.250Z,50.834824
2023-03-22T01:18:35.263Z,50.834797
2023-03-22T01:19:35.260Z,50.834778
2023-03-22T01:20:35.225Z,50.834805
2023-03-22T01:21:35.213Z,50.834789
2023-03-22T01:22:35.184Z,50.834793
2023-03-22T01:23:35.177Z,50.834778
2023-03-22T01:24:35.233Z,50.834789
2023-03-22T01:25:35.158Z,50.834778
2023-03-22T01:26:35.188Z,50.834759
2023-03-22T01:27:35.174Z,50.834766
2023-03-22T01:28:35.211Z,50.834793
2023-03-22T01:29:35.152Z,50.834789
2023-03-22T01:30:35.180Z,50.834808
2023-03-22T01:31:35.128Z,50.834789
2023-03-22T01:32:35.155Z,50.834785
2023-03-22T01:33:35.119Z,50.834801
2023-03-22T01:34:35.122Z,50.834797
2023-03-22T01:35:35.158Z,50.834785
2023-03-22T01:36:35.159Z,50.834793
2023-03-22T01:37:35.180Z,50.834785
2023-03-22T01:38:35.079Z,50.834808
2023-03-22T01:39:35.132Z,50.834789
2023-03-22T01:40:35.125Z,50.834782
2023-03-22T01:41:35.104Z,50.834782
2023-03-22T01:42:35.076Z,50.834778
2023-03-22T01:43:35.063Z,50.834789
2023-03-22T01:44:35.093Z,50.834778
2023-03-22T01:45:35.079Z,50.834782
2023-03-22T01:46:35.044Z,50.834805
2023-03-22T01:47:35.088Z,50.834789
2023-03-22T01:48:35.026Z,50.834778
2023-03-22T01:49:34.996Z,50.834778
2023-03-22T01:50:35.016Z,50.834782
2023-03-22T01:51:35.011Z,50.834782
2023-03-22T01:52:35.019Z,50.834759
2023-03-22T01:53:35.045Z,50.834782
2023-03-22T01:54:34.964Z,50.834766
2023-03-22T01:55:34.971Z,50.834774
2023-03-22T01:56:35.002Z,50.834782
2023-03-22T01:57:34.984Z,50.834766
2023-03-22T01:58:34.939Z,50.834785
2023-03-22T01:59:34.956Z,50.834789
2023-03-22T02:00:34.906Z,50.834820
2023-03-22T02:01:35.104Z,50.834801
2023-03-22T02:02:34.972Z,50.834808
2023-03-22T02:03:34.878Z,50.834805
2023-03-22T02:04:34.910Z,50.834789
2023-03-22T02:05:34.897Z,50.834812
2023-03-22T02:06:34.875Z,50.834835
2023-03-22T02:07:34.896Z,50.834812
2023-03-22T02:08:34.855Z,50.834801
2023-03-22T02:09:35.452Z,50.834816
2023-03-22T02:10:36.621Z,50.834812
2023-03-22T02:11:34.857Z,50.834808
2023-03-22T02:12:34.832Z,50.834816
2023-03-22T02:13:34.876Z,50.834805
2023-03-22T02:14:34.845Z,50.834805
2023-03-22T02:15:34.834Z,50.834831
2023-03-22T02:16:34.780Z,50.834835
2023-03-22T02:17:34.771Z,50.834820
2023-03-22T02:18:34.767Z,50.834797
2023-03-22T02:19:34.769Z,50.834793
2023-03-22T02:20:34.773Z,50.834793
2023-03-22T02:21:34.730Z,50.834774
2023-03-22T02:22:34.725Z,50.834797
2023-03-22T02:23:35.188Z,50.834805
2023-03-22T02:24:34.738Z,50.834816
2023-03-22T02:25:34.698Z,50.834824
2023-03-22T02:26:34.688Z,50.834801
2023-03-22T02:27:34.699Z,50.834846
2023-03-22T02:28:34.676Z,50.834816
2023-03-22T02:29:34.678Z,50.834824
2023-03-22T02:30:35.823Z,50.834812
2023-03-22T02:31:34.692Z,50.834827
2023-03-22T02:32:34.659Z,50.834839
2023-03-22T02:33:34.635Z,50.834827
2023-03-22T02:34:34.704Z,50.834831
2023-03-22T02:35:34.729Z,50.834812
2023-03-22T02:36:34.621Z,50.834831
2023-03-22T02:37:34.611Z,50.834824
2023-03-22T02:38:34.602Z,50.834812
2023-03-22T02:39:34.608Z,50.834816
2023-03-22T02:40:34.603Z,50.834831
2023-03-22T02:41:34.660Z,50.834824
2023-03-22T02:42:34.602Z,50.834827
2023-03-22T02:43:34.600Z,50.834820
2023-03-22T02:44:34.582Z,50.834820
2023-03-22T02:45:34.596Z,50.834827
2023-03-22T02:46:34.594Z,50.834808
2023-03-22T02:47:34.572Z,50.834820
2023-03-22T02:48:34.528Z,50.834835
2023-03-22T02:49:36.156Z,50.834831
2023-03-22T02:50:34.723Z,50.834812
2023-03-22T02:51:34.511Z,50.834816
2023-03-22T02:52:34.503Z,50.834824
2023-03-22T02:53:34.493Z,50.834812
2023-03-22T02:55:07.053Z,50.834820
2023-03-22T02:55:35.153Z,50.834812
2023-03-22T02:56:34.480Z,50.834801
2023-03-22T02:57:34.458Z,50.834789
2023-03-22T02:58:34.470Z,50.834816
2023-03-22T02:59:34.449Z,50.834805
2023-03-22T03:00:34.516Z,50.834808
2023-03-22T03:01:34.535Z,50.834827
2023-03-22T03:02:34.423Z,50.834801
2023-03-22T03:03:34.419Z,50.834797
2023-03-22T03:04:35.397Z,50.834831
2023-03-22T03:05:35.994Z,50.834812
2023-03-22T03:06:34.436Z,50.834835
2023-03-22T03:07:34.379Z,50.834827
2023-03-22T03:08:34.437Z,50.834816
2023-03-22T03:09:34.384Z,50.834808
2023-03-22T03:10:34.354Z,50.834812
2023-03-22T03:11:34.369Z,50.834820
2023-03-22T03:12:34.392Z,50.834816
2023-03-22T03:13:34.352Z,50.834824
2023-03-22T03:14:34.364Z,50.834820
2023-03-22T03:15:34.351Z,50.834820
2023-03-22T03:16:34.504Z,50.834805
2023-03-22T03:17:34.316Z,50.834801
2023-03-22T03:18:34.352Z,50.834797
2023-03-22T03:19:34.386Z,50.834805
2023-03-22T03:20:34.283Z,50.834812
2023-03-22T03:21:34.284Z,50.834801
2023-03-22T03:22:34.310Z,50.834812
2023-03-22T03:23:34.254Z,50.834778
2023-03-22T03:24:35.258Z,50.834801
2023-03-22T03:25:34.253Z,50.834801
2023-03-22T03:26:34.270Z,50.834797
2023-03-22T03:27:34.260Z,50.834801
2023-03-22T03:28:34.256Z,50.834808
2023-03-22T03:29:34.241Z,50.834805
2023-03-22T03:30:34.202Z,50.834824
2023-03-22T03:31:34.245Z,50.834808
2023-03-22T03:32:34.205Z,50.834816
2023-03-22T03:33:34.209Z,50.834820
2023-03-22T03:34:34.186Z,50.834816
2023-03-22T03:35:34.199Z,50.834820
2023-03-22T03:36:34.162Z,50.834801
2023-03-22T03:37:34.194Z,50.834805
2023-03-22T03:38:34.197Z,50.834816
2023-03-22T03:39:34.139Z,50.834824
2023-03-22T03:40:34.144Z,50.834808
2023-03-22T03:41:34.140Z,50.834805
2023-03-22T03:42:34.139Z,50.834827
2023-03-22T03:43:34.144Z,50.834824
2023-03-22T03:44:34.264Z,50.834812
2023-03-22T03:46:06.599Z,50.834812
2023-03-22T03:46:34.095Z,50.834782
2023-03-22T04:04:55.237Z,50.834827
2023-03-22T04:05:55.174Z,50.834927
2023-03-22T04:06:55.155Z,50.834984
2023-03-22T04:07:55.191Z,50.834919
2023-03-22T04:08:55.135Z,50.834846
2023-03-22T04:09:55.142Z,50.834808
2023-03-22T04:10:55.156Z,50.834835
2023-03-22T04:11:55.114Z,50.834839
2023-03-22T04:12:55.150Z,50.834846
2023-03-22T04:13:55.101Z,50.834843
2023-03-22T04:14:55.118Z,50.834820
2023-03-22T04:15:55.096Z,50.834850
2023-03-22T04:16:55.214Z,50.834835
2023-03-22T04:17:55.138Z,50.834831
2023-03-22T04:18:55.773Z,50.834843
2023-03-22T04:19:55.051Z,50.834843
2023-03-22T04:20:55.088Z,50.834839
2023-03-22T04:21:55.054Z,50.834839
2023-03-22T04:22:55.078Z,50.834827
2023-03-22T04:23:55.029Z,50.834820
2023-03-22T04:24:55.029Z,50.834808
2023-03-22T04:25:55.040Z,50.834850
2023-03-22T04:26:55.046Z,50.834850
2023-03-22T04:27:55.055Z,50.834812
2023-03-22T04:28:55.020Z,50.834801
2023-03-22T04:29:55.017Z,50.834827
2023-03-22T04:30:55.104Z,50.834858
2023-03-22T04:31:54.982Z,50.834850
2023-03-22T04:32:54.973Z,50.834846
2023-03-22T04:33:54.962Z,50.834873
2023-03-22T04:34:54.965Z,50.834843
2023-03-22T04:35:54.964Z,50.834862
2023-03-22T04:36:54.948Z,50.834827
2023-03-22T04:37:54.976Z,50.834854
2023-03-22T04:38:55.061Z,50.834835
2023-03-22T04:39:54.929Z,50.834839
2023-03-22T04:40:54.911Z,50.834835
2023-03-22T04:41:54.917Z,50.834850
2023-03-22T04:42:54.886Z,50.834869
2023-03-22T04:43:54.869Z,50.834850
2023-03-22T04:44:54.914Z,50.834873
2023-03-22T04:45:55.158Z,50.834877
2023-03-22T04:46:54.851Z,50.834835
2023-03-22T04:47:54.896Z,50.834858
2023-03-22T04:48:54.849Z,50.834824
2023-03-22T04:49:54.873Z,50.834866
2023-03-22T04:50:54.839Z,50.834846
2023-03-22T04:51:54.850Z,50.834854
2023-03-22T04:52:54.817Z,50.834858
2023-03-22T04:53:54.801Z,50.834831
2023-03-22T04:54:54.820Z,50.834862
2023-03-22T04:55:54.788Z,50.834862
2023-03-22T04:56:54.796Z,50.834850
2023-03-22T04:57:54.793Z,50.834843
2023-03-22T04:58:54.769Z,50.834854
2023-03-22T04:59:54.772Z,50.834850
2023-03-22T05:00:54.744Z,50.834846
2023-03-22T05:01:54.795Z,50.834846
2023-03-22T05:02:54.787Z,50.834858
2023-03-22T05:03:54.750Z,50.834846
2023-03-22T05:04:54.766Z,50.834862
2023-03-22T05:05:54.712Z,50.834854
2023-03-22T05:06:54.695Z,50.834831
2023-03-22T05:07:54.687Z,50.834839
2023-03-22T05:08:54.682Z,50.834850
2023-03-22T05:09:54.695Z,50.834835
2023-03-22T05:10:54.687Z,50.834846
2023-03-22T05:11:54.647Z,50.834843
2023-03-22T05:12:54.663Z,50.834843
2023-03-22T05:13:54.686Z,50.834846
2023-03-22T05:14:55.639Z,50.834892
2023-03-22T05:15:54.641Z,50.834843
2023-03-22T05:16:54.653Z,50.834866
2023-03-22T05:17:54.626Z,50.834873
2023-03-22T05:18:54.630Z,50.834854
2023-03-22T05:19:54.588Z,50.834858
2023-03-22T05:20:54.599Z,50.834839
2023-03-22T05:21:54.607Z,50.834839
2023-03-22T05:22:54.583Z,50.834827
2023-03-22T05:23:54.618Z,50.834854
2023-03-22T05:24:54.567Z,50.834858
2023-03-22T05:25:54.545Z,50.834881
2023-03-22T05:26:54.635Z,50.834862
2023-03-22T05:27:54.520Z,50.834866
2023-03-22T05:28:54.530Z,50.834835
2023-03-22T05:29:54.530Z,50.834858
2023-03-22T05:30:57.028Z,50.834869
2023-03-22T05:31:55.552Z,50.834873
2023-03-22T05:32:54.510Z,50.834892
2023-03-22T05:33:54.505Z,50.834908
2023-03-22T05:34:54.486Z,50.834892
2023-03-22T05:35:54.481Z,50.834892
2023-03-22T05:36:54.495Z,50.834866
2023-03-22T05:37:54.494Z,50.834896
2023-03-22T05:38:54.458Z,50.834900
2023-03-22T05:39:54.598Z,50.834915
2023-03-22T05:40:54.440Z,50.834877
2023-03-22T05:41:54.425Z,50.834900
2023-03-22T05:42:54.415Z,50.834862
2023-03-22T05:43:54.452Z,50.834877
2023-03-22T05:44:54.416Z,50.834869
2023-03-22T05:45:54.421Z,50.834896
2023-03-22T05:46:54.446Z,50.834904
2023-03-22T05:47:54.453Z,50.834911
2023-03-22T05:48:54.414Z,50.834904
2023-03-22T05:49:54.419Z,50.834915
2023-03-22T05:50:55.279Z,50.834911
2023-03-22T05:51:54.370Z,50.834892
2023-03-22T05:52:55.475Z,50.834923
2023-03-22T05:53:54.365Z,50.834908
2023-03-22T05:54:54.347Z,50.834900
2023-03-22T05:55:54.342Z,50.834904
2023-03-22T05:56:55.777Z,50.834892
2023-03-22T05:57:55.315Z,50.834896
2023-03-22T05:58:54.424Z,50.834911
2023-03-22T05:59:54.378Z,50.834900
2023-03-22T06:00:54.367Z,50.834881
2023-03-22T06:01:54.331Z,50.834881
2023-03-22T06:02:55.293Z,50.834869
2023-03-22T06:03:54.285Z,50.834862
2023-03-22T06:04:54.261Z,50.834869
2023-03-22T06:05:54.260Z,50.834866
2023-03-22T06:06:54.273Z,50.834869
2023-03-22T06:07:54.239Z,50.834881
2023-03-22T06:08:56.457Z,50.834885
2023-03-22T06:09:55.224Z,50.834869
2023-03-22T06:10:54.197Z,50.834866
2023-03-22T06:12:27.685Z,50.834866
2023-03-22T06:12:54.292Z,50.834873
2023-03-22T06:13:54.208Z,50.834862
2023-03-22T06:14:54.196Z,50.834858
2023-03-22T06:15:54.175Z,50.834862
2023-03-22T06:16:54.274Z,50.834858
2023-03-22T06:17:54.201Z,50.834869
2023-03-22T06:18:54.168Z,50.834892
2023-03-22T06:19:54.152Z,50.834877
2023-03-22T06:20:54.147Z,50.834854
2023-03-22T06:21:54.287Z,50.834869
2023-03-22T06:22:54.139Z,50.834873
2023-03-22T06:23:54.169Z,50.834866
2023-03-22T06:24:54.108Z,50.834854
2023-03-22T06:25:54.117Z,50.834846
2023-03-22T06:26:54.103Z,50.834843
2023-03-22T06:27:54.094Z,50.834839
2023-03-22T06:28:54.088Z,50.834846
2023-03-22T06:29:54.167Z,50.834846
2023-03-22T06:30:54.123Z,50.834835
2023-03-22T06:31:54.262Z,50.834839
2023-03-22T06:32:54.043Z,50.834839
2023-03-22T06:33:55.848Z,50.834839
2023-03-22T06:34:55.043Z,50.834862
2023-03-22T06:35:54.066Z,50.834843
2023-03-22T06:36:54.042Z,50.834843
2023-03-22T06:37:54.014Z,50.834850
2023-03-22T06:38:54.036Z,50.834854
2023-03-22T06:39:53.985Z,50.834862
2023-03-22T06:40:53.981Z,50.834839
2023-03-22T06:41:53.988Z,50.834858
2023-03-22T06:42:54.024Z,50.834869
2023-03-22T06:43:53.967Z,50.834866
2023-03-22T06:44:53.979Z,50.834846
2023-03-22T06:45:53.950Z,50.834835
2023-03-22T06:46:53.915Z,50.834862
2023-03-22T06:47:53.966Z,50.834831
2023-03-22T06:48:53.911Z,50.834835
2023-03-22T06:49:53.912Z,50.834858
2023-03-22T06:50:53.914Z,50.834877
2023-03-22T06:51:53.888Z,50.834862
2023-03-22T06:52:53.898Z,50.834873
2023-03-22T06:53:53.867Z,50.834854
2023-03-22T06:54:53.864Z,50.834854
2023-03-22T06:55:55.442Z,50.834846
2023-03-22T06:56:54.848Z,50.834831
2023-03-22T06:57:53.884Z,50.834831
2023-03-22T06:58:53.825Z,50.834831
2023-03-22T06:59:53.825Z,50.834831
2023-03-22T07:00:53.823Z,50.834831
2023-03-22T07:01:53.864Z,50.834835
2023-03-22T07:02:53.812Z,50.834843
2023-03-22T07:03:53.805Z,50.834839
2023-03-22T07:04:53.805Z,50.834843
2023-03-22T07:05:53.772Z,50.834827
2023-03-22T07:06:53.771Z,50.834831
2023-03-22T07:07:53.772Z,50.834835
2023-03-22T07:08:53.766Z,50.834827
2023-03-22T07:09:53.782Z,50.834812
2023-03-22T07:10:53.844Z,50.834820
2023-03-22T07:11:53.735Z,50.834816
2023-03-22T07:12:53.733Z,50.834816
2023-03-22T07:13:53.743Z,50.834827
2023-03-22T07:14:53.723Z,50.834827
2023-03-22T07:15:53.716Z,50.834820
2023-03-22T07:16:54.712Z,50.834808
2023-03-22T07:17:53.701Z,50.834831
2023-03-22T07:18:53.707Z,50.834831
2023-03-22T07:19:53.693Z,50.834820
2023-03-22T07:20:53.749Z,50.834839
2023-03-22T07:21:53.703Z,50.834831
2023-03-22T07:22:53.663Z,50.834816
2023-03-22T07:23:53.776Z,50.834831
2023-03-22T07:24:57.722Z,50.834816
2023-03-22T07:25:55.630Z,50.834835
2023-03-22T07:26:53.629Z,50.834816
2023-03-22T07:27:53.620Z,50.834816
2023-03-22T07:28:53.728Z,50.834824
2023-03-22T07:29:53.613Z,50.834820
2023-03-22T07:30:53.608Z,50.834835
2023-03-22T07:31:53.703Z,50.834824
2023-03-22T07:32:53.598Z,50.834824
2023-03-22T07:33:53.580Z,50.834824
2023-03-22T07:34:53.578Z,50.834827
2023-03-22T07:35:54.339Z,50.834824
2023-03-22T07:36:53.553Z,50.834824
2023-03-22T07:37:53.634Z,50.834816
2023-03-22T07:38:53.537Z,50.834835
2023-03-22T07:39:53.543Z,50.834812
2023-03-22T07:40:53.551Z,50.834816
2023-03-22T07:41:53.518Z,50.834827
2023-03-22T07:42:55.753Z,50.834808
2023-03-22T07:44:02.249Z,50.834801
2023-03-22T07:44:55.506Z,50.834808
2023-03-22T07:45:53.557Z,50.834812
2023-03-22T07:46:53.501Z,50.834827
2023-03-22T07:47:53.565Z,50.834835
2023-03-22T07:48:53.556Z,50.834824
2023-03-22T07:49:53.460Z,50.834812
2023-03-22T07:50:53.480Z,50.834816
2023-03-22T07:51:53.462Z,50.834808
2023-03-22T07:52:53.759Z,50.834812
2023-03-22T07:53:53.528Z,50.834820
2023-03-22T07:54:53.740Z,50.834816
2023-03-22T07:55:53.417Z,50.834812
2023-03-22T07:56:53.414Z,50.834812
2023-03-22T07:57:53.424Z,50.834808
2023-03-22T07:58:53.468Z,50.834805
2023-03-22T07:59:53.429Z,50.834808
2023-03-22T08:00:53.447Z,50.834812
2023-03-22T08:01:53.477Z,50.834797
2023-03-22T08:02:53.379Z,50.834793
2023-03-22T08:03:53.393Z,50.834774
2023-03-22T08:04:55.807Z,50.834782
2023-03-22T08:05:54.355Z,50.834782
2023-03-22T08:06:53.389Z,50.834770
2023-03-22T08:07:53.334Z,50.834770
2023-03-22T08:08:53.351Z,50.834774
2023-03-22T08:09:53.335Z,50.834770
2023-03-22T08:10:53.305Z,50.834770
2023-03-22T08:11:53.330Z,50.834763
2023-03-22T08:12:53.318Z,50.834789
2023-03-22T08:13:53.270Z,50.834778
2023-03-22T08:14:53.294Z,50.834793
2023-03-22T08:15:53.383Z,50.834808
2023-03-22T08:16:53.296Z,50.834797
2023-03-22T08:17:53.248Z,50.834766
2023-03-22T08:18:53.265Z,50.834770
2023-03-22T08:19:53.273Z,50.834793
2023-03-22T08:20:53.271Z,50.834782
2023-03-22T08:21:53.225Z,50.834789
2023-03-22T08:22:53.267Z,50.834793
2023-03-22T08:23:53.222Z,50.834797
2023-03-22T08:24:53.330Z,50.834763
2023-03-22T08:25:53.219Z,50.834785
2023-03-22T08:26:53.260Z,50.834763
2023-03-22T08:27:53.163Z,50.834763
2023-03-22T08:28:53.250Z,50.834785
2023-03-22T08:29:53.186Z,50.834816
2023-03-22T08:30:53.158Z,50.834789
2023-03-22T08:31:53.206Z,50.834793
2023-03-22T08:32:53.134Z,50.834805
2023-03-22T08:33:53.174Z,50.834801
2023-03-22T08:34:53.108Z,50.834808
2023-03-22T08:35:53.173Z,50.834766
2023-03-22T08:36:53.188Z,50.834789
2023-03-22T08:37:53.133Z,50.834782
2023-03-22T08:38:53.105Z,50.834778
2023-03-22T08:39:53.084Z,50.834774
2023-03-22T08:40:54.107Z,50.834774
2023-03-22T08:41:53.116Z,50.834789
2023-03-22T08:42:53.075Z,50.834770
2023-03-22T08:43:53.097Z,50.834770
2023-03-22T08:44:53.047Z,50.834763
2023-03-22T08:45:53.063Z,50.834751
2023-03-22T08:46:53.023Z,50.834763
2023-03-22T08:47:53.123Z,50.834763
2023-03-22T08:48:53.161Z,50.834774
2023-03-22T08:49:53.040Z,50.834766
2023-03-22T08:50:53.033Z,50.834766
2023-03-22T08:51:52.982Z,50.834763
2023-03-22T08:52:52.991Z,50.834789
2023-03-22T08:53:53.056Z,50.834793
2023-03-22T08:54:52.970Z,50.834789
2023-03-22T08:55:52.966Z,50.834759
2023-03-22T08:56:53.021Z,50.834763
2023-03-22T08:57:52.933Z,50.834759
2023-03-22T08:58:52.964Z,50.834770
2023-03-22T08:59:52.952Z,50.834766
2023-03-22T09:00:53.046Z,50.834770
2023-03-22T09:01:53.007Z,50.834778
2023-03-22T09:02:52.946Z,50.834782
2023-03-22T09:03:52.952Z,50.834797
2023-03-22T09:04:53.004Z,50.834778
2023-03-22T09:05:52.913Z,50.834782
2023-03-22T09:06:52.885Z,50.834785
2023-03-22T09:07:52.860Z,50.834782
2023-03-22T09:08:52.866Z,50.834793
2023-03-22T09:09:52.866Z,50.834801
2023-03-22T09:10:52.887Z,50.834793
2023-03-22T09:11:52.849Z,50.834785
2023-03-22T09:12:52.858Z,50.834827
2023-03-22T09:13:52.846Z,50.834805
2023-03-22T09:14:52.847Z,50.834793
2023-03-22T09:15:52.941Z,50.834785
2023-03-22T09:16:52.794Z,50.834801
2023-03-22T09:17:52.829Z,50.834812
2023-03-22T09:18:52.837Z,50.834801
2023-03-22T09:20:05.873Z,50.834785
2023-03-22T09:20:54.851Z,50.834835
2023-03-22T09:21:52.757Z,50.834805
2023-03-22T09:22:52.776Z,50.834808
2023-03-22T09:23:52.790Z,50.834816
2023-03-22T09:24:52.796Z,50.834789
2023-03-22T09:25:52.743Z,50.834793
2023-03-22T09:26:52.737Z,50.834793
2023-03-22T09:27:52.719Z,50.834778
2023-03-22T09:28:52.783Z,50.834797
2023-03-22T09:29:52.731Z,50.834805
2023-03-22T09:30:52.729Z,50.834808
2023-03-22T09:31:52.742Z,50.834824
2023-03-22T09:32:52.700Z,50.834808
2023-03-22T09:33:52.737Z,50.834793
2023-03-22T09:34:52.734Z,50.834805
2023-03-22T09:35:52.723Z,50.834785
2023-03-22T09:36:52.674Z,50.834812
2023-03-22T09:37:52.761Z,50.834801
2023-03-22T09:38:52.623Z,50.834797
2023-03-22T09:39:53.607Z,50.834785
2023-03-22T09:40:52.648Z,50.834797
2023-03-22T09:41:52.662Z,50.834812
2023-03-22T09:42:52.633Z,50.834812
2023-03-22T09:43:52.595Z,50.834797
2023-03-22T09:44:52.643Z,50.834805
2023-03-22T09:45:52.634Z,50.834797
2023-03-22T09:46:52.587Z,50.834805
2023-03-22T09:47:52.721Z,50.834805
2023-03-22T09:48:52.576Z,50.834808
2023-03-22T09:49:54.147Z,50.834793
2023-03-22T09:50:53.555Z,50.834801
2023-03-22T09:51:52.595Z,50.834797
2023-03-22T09:52:52.580Z,50.834797
2023-03-22T09:53:52.531Z,50.834801
2023-03-22T09:54:53.426Z,50.834805
2023-03-22T09:55:53.500Z,50.834827
2023-03-22T09:56:52.526Z,50.834801
2023-03-22T09:57:52.502Z,50.834816
2023-03-22T09:58:52.568Z,50.834805
2023-03-22T09:59:52.479Z,50.834793
2023-03-22T10:00:52.570Z,50.834808
2023-03-22T10:01:52.668Z,50.834808
2023-03-22T10:02:52.497Z,50.834808
2023-03-22T10:03:52.509Z,50.834797
2023-03-22T10:04:52.460Z,50.834805
2023-03-22T10:05:52.474Z,50.834820
2023-03-22T10:06:52.409Z,50.834824
2023-03-22T10:07:52.417Z,50.834839
2023-03-22T10:08:53.404Z,50.834824
2023-03-22T10:09:52.421Z,50.834812
2023-03-22T10:10:52.416Z,50.834812
2023-03-22T10:11:52.537Z,50.834797
2023-03-22T10:12:52.362Z,50.834820
2023-03-22T10:13:52.371Z,50.834812
2023-03-22T10:14:52.385Z,50.834827
2023-03-22T10:15:52.453Z,50.834820
2023-03-22T10:16:53.773Z,50.834827
2023-03-22T10:17:52.345Z,50.834827
2023-03-22T10:18:52.320Z,50.834824
2023-03-22T10:19:52.329Z,50.834831
2023-03-22T10:20:52.318Z,50.834820
2023-03-22T10:21:52.373Z,50.834843
2023-03-22T10:22:53.395Z,50.834835
2023-03-22T10:23:53.281Z,50.834835
2023-03-22T10:24:52.291Z,50.834827
2023-03-22T10:25:52.314Z,50.834843
2023-03-22T10:26:52.313Z,50.834846
2023-03-22T10:27:52.271Z,50.834835
2023-03-22T10:28:52.272Z,50.834827
2023-03-22T10:29:52.259Z,50.834820
2023-03-22T10:30:52.272Z,50.834835
2023-03-22T10:31:52.311Z,50.834805
2023-03-22T10:32:57.767Z,50.834843
2023-03-22T10:33:54.199Z,50.834812
2023-03-22T10:34:52.212Z,50.834827
2023-03-22T10:35:52.324Z,50.834812
2023-03-22T10:36:52.200Z,50.834816
2023-03-22T10:37:52.237Z,50.834831
2023-03-22T10:38:52.185Z,50.834843
2023-03-22T10:39:52.192Z,50.834824
2023-03-22T10:40:52.198Z,50.834835
2023-03-22T10:41:52.210Z,50.834835
2023-03-22T10:42:52.184Z,50.834816
2023-03-22T10:43:52.154Z,50.834820
2023-03-22T10:44:52.174Z,50.834831
2023-03-22T10:45:52.151Z,50.834824
2023-03-22T10:46:52.229Z,50.834820
2023-03-22T10:47:52.197Z,50.834812
2023-03-22T10:48:52.921Z,50.834820
2023-03-22T10:49:52.086Z,50.834824
2023-03-22T10:50:52.089Z,50.834820
2023-03-22T10:51:52.079Z,50.834835
2023-03-22T10:52:52.093Z,50.834831
2023-03-22T10:53:52.091Z,50.834820
2023-03-22T10:54:52.075Z,50.834820
2023-03-22T10:55:52.064Z,50.834835
2023-03-22T10:56:52.116Z,50.834827
2023-03-22T10:57:52.111Z,50.834824
2023-03-22T10:58:52.057Z,50.834831
2023-03-22T10:59:52.072Z,50.834812
2023-03-22T11:00:52.117Z,50.834816
2023-03-22T11:01:52.262Z,50.834820
2023-03-22T11:02:52.065Z,50.834831
2023-03-22T11:03:52.009Z,50.834816
2023-03-22T11:04:51.988Z,50.834820
2023-03-22T11:05:52.006Z,50.834824
2023-03-22T11:06:54.638Z,50.834824
2023-03-22T11:07:51.985Z,50.834831
2023-03-22T11:08:52.004Z,50.834820
2023-03-22T11:09:52.002Z,50.834827
2023-03-22T11:10:52.053Z,50.834831
2023-03-22T11:11:51.943Z,50.834816
2023-03-22T11:12:51.946Z,50.834827
2023-03-22T11:13:51.903Z,50.834827
2023-03-22T11:14:52.036Z,50.834831
2023-03-22T11:15:51.941Z,50.834827
2023-03-22T11:16:51.980Z,50.834835
2023-03-22T11:17:51.905Z,50.834835
2023-03-22T11:18:51.889Z,50.834824
2023-03-22T11:19:52.228Z,50.834820
2023-03-22T11:20:51.925Z,50.834831
2023-03-22T11:21:51.883Z,50.834839
2023-03-22T11:22:51.865Z,50.834854
2023-03-22T11:23:51.835Z,50.834846
2023-03-22T11:24:51.939Z,50.834858
2023-03-22T11:25:51.973Z,50.834839
2023-03-22T11:26:51.844Z,50.834839
2023-03-22T11:27:51.874Z,50.834831
2023-03-22T11:28:51.819Z,50.834843
2023-03-22T11:29:51.814Z,50.834839
2023-03-22T11:30:51.773Z,50.834831
2023-03-22T11:31:54.219Z,50.834843
2023-03-22T11:32:51.856Z,50.834808
2023-03-22T11:33:51.757Z,50.834835
2023-03-22T11:34:51.737Z,50.834827
2023-03-22T11:35:51.776Z,50.834835
2023-03-22T11:36:51.763Z,50.834816
2023-03-22T11:37:51.781Z,50.834820
2023-03-22T11:38:51.733Z,50.834812
2023-03-22T11:39:51.741Z,50.834846
2023-03-22T11:40:51.760Z,50.834824
2023-03-22T11:41:51.721Z,50.834843